sensor_id;sensor_type;location;lat;lon;timestamp;P1;durP1;ratioP1;P2;durP2;ratioP2
22131;SDS011;11232;51.748;19.390;2024-01-15T00:02:06;25.87;;;12.23;;
22131;SDS011;11232;51.748;19.390;2024-01-15T00:04:36;29.63;;;12.60;;
22131;SDS011;11232;51.748;19.390;2024-01-15T00:07:03;25.07;;;11.37;;
22131;SDS011;11232;51.748;19.390;2024-01-15T00:09:29;22.97;;;11.17;;
22131;SDS011;11232;51.748;19.390;2024-01-15T00:11:55;25.70;;;9.93;;
22131;SDS011;11232;51.748;19.390;2024-01-15T00:14:22;27.07;;;11.30;;
22131;SDS011;11232;51.748;19.390;2024-01-15T00:16:48;28.60;;;12.33;;
22131;SDS011;11232;51.748;19.390;2024-01-15T00:19:16;23.30;;;9.93;;
22131;SDS011;11232;51.748;19.390;2024-01-15T00:21:42;18.57;;;7.73;;
22131;SDS011;11232;51.748;19.390;2024-01-15T00:24:08;18.93;;;9.83;;
22131;SDS011;11232;51.748;19.390;2024-01-15T00:26:34;27.13;;;10.83;;
22131;SDS011;11232;51.748;19.390;2024-01-15T00:29:00;20.23;;;8.37;;
22131;SDS011;11232;51.748;19.390;2024-01-15T00:31:26;22.40;;;9.83;;
22131;SDS011;11232;51.748;19.390;2024-01-15T00:33:52;22.17;;;9.50;;
22131;SDS011;11232;51.748;19.390;2024-01-15T00:36:18;19.20;;;8.57;;
22131;SDS011;11232;51.748;19.390;2024-01-15T00:38:44;29.00;;;12.30;;
22131;SDS011;11232;51.748;19.390;2024-01-15T00:41:12;24.07;;;11.53;;
22131;SDS011;11232;51.748;19.390;2024-01-15T00:43:38;25.70;;;10.53;;
22131;SDS011;11232;51.748;19.390;2024-01-15T00:46:04;20.63;;;9.07;;
22131;SDS011;11232;51.748;19.390;2024-01-15T00:48:30;23.37;;;10.70;;
22131;SDS011;11232;51.748;19.390;2024-01-15T00:50:56;20.83;;;9.03;;
22131;SDS011;11232;51.748;19.390;2024-01-15T00:53:22;19.50;;;9.10;;
22131;SDS011;11232;51.748;19.390;2024-01-15T00:55:49;26.77;;;10.87;;
22131;SDS011;11232;51.748;19.390;2024-01-15T00:58:15;23.73;;;11.17;;
22131;SDS011;11232;51.748;19.390;2024-01-15T01:00:41;23.07;;;10.20;;
22131;SDS011;11232;51.748;19.390;2024-01-15T01:03:07;18.13;;;8.70;;
22131;SDS011;11232;51.748;19.390;2024-01-15T01:05:33;27.77;;;11.10;;
22131;SDS011;11232;51.748;19.390;2024-01-15T01:07:59;26.33;;;13.17;;
22131;SDS011;11232;51.748;19.390;2024-01-15T01:10:27;20.47;;;9.97;;
22131;SDS011;11232;51.748;19.390;2024-01-15T01:12:53;23.83;;;10.50;;
22131;SDS011;11232;51.748;19.390;2024-01-15T01:15:19;22.93;;;9.97;;
22131;SDS011;11232;51.748;19.390;2024-01-15T01:17:45;21.67;;;10.47;;
22131;SDS011;11232;51.748;19.390;2024-01-15T01:20:11;19.93;;;9.17;;
22131;SDS011;11232;51.748;19.390;2024-01-15T01:22:37;23.50;;;10.27;;
22131;SDS011;11232;51.748;19.390;2024-01-15T01:25:03;26.53;;;10.43;;
22131;SDS011;11232;51.748;19.390;2024-01-15T01:27:29;24.93;;;10.97;;
22131;SDS011;11232;51.748;19.390;2024-01-15T01:29:55;23.30;;;11.07;;
22131;SDS011;11232;51.748;19.390;2024-01-15T01:32:21;22.93;;;10.77;;
22131;SDS011;11232;51.748;19.390;2024-01-15T01:34:47;25.77;;;10.60;;
22131;SDS011;11232;51.748;19.390;2024-01-15T01:37:13;20.17;;;9.43;;
22131;SDS011;11232;51.748;19.390;2024-01-15T01:39:40;10.67;;;5.67;;
22131;SDS011;11232;51.748;19.390;2024-01-15T01:42:06;21.63;;;9.93;;
22131;SDS011;11232;51.748;19.390;2024-01-15T01:44:32;13.73;;;7.67;;
22131;SDS011;11232;51.748;19.390;2024-01-15T01:46:58;25.20;;;9.40;;
22131;SDS011;11232;51.748;19.390;2024-01-15T01:49:25;19.00;;;9.20;;
22131;SDS011;11232;51.748;19.390;2024-01-15T01:51:52;18.93;;;9.60;;
22131;SDS011;11232;51.748;19.390;2024-01-15T01:54:19;20.30;;;9.37;;
22131;SDS011;11232;51.748;19.390;2024-01-15T01:56:46;17.50;;;9.40;;
22131;SDS011;11232;51.748;19.390;2024-01-15T01:59:13;15.83;;;6.80;;
22131;SDS011;11232;51.748;19.390;2024-01-15T02:01:39;17.97;;;7.77;;
22131;SDS011;11232;51.748;19.390;2024-01-15T02:04:06;22.00;;;9.63;;
22131;SDS011;11232;51.748;19.390;2024-01-15T02:06:33;20.87;;;8.13;;
22131;SDS011;11232;51.748;19.390;2024-01-15T02:08:59;24.07;;;10.07;;
22131;SDS011;11232;51.748;19.390;2024-01-15T02:11:25;15.80;;;6.03;;
22131;SDS011;11232;51.748;19.390;2024-01-15T02:13:51;23.63;;;10.03;;
22131;SDS011;11232;51.748;19.390;2024-01-15T02:16:17;18.07;;;7.80;;
22131;SDS011;11232;51.748;19.390;2024-01-15T02:18:44;20.70;;;8.03;;
22131;SDS011;11232;51.748;19.390;2024-01-15T02:21:10;17.43;;;8.20;;
22131;SDS011;11232;51.748;19.390;2024-01-15T02:23:36;16.50;;;8.03;;
22131;SDS011;11232;51.748;19.390;2024-01-15T02:26:03;20.83;;;9.27;;
22131;SDS011;11232;51.748;19.390;2024-01-15T02:28:29;18.20;;;7.90;;
22131;SDS011;11232;51.748;19.390;2024-01-15T02:30:55;22.17;;;10.17;;
22131;SDS011;11232;51.748;19.390;2024-01-15T02:33:21;18.00;;;8.23;;
22131;SDS011;11232;51.748;19.390;2024-01-15T02:35:47;25.87;;;10.13;;
22131;SDS011;11232;51.748;19.390;2024-01-15T02:38:15;24.33;;;9.33;;
22131;SDS011;11232;51.748;19.390;2024-01-15T02:40:40;23.77;;;10.27;;
22131;SDS011;11232;51.748;19.390;2024-01-15T02:43:06;19.87;;;9.07;;
22131;SDS011;11232;51.748;19.390;2024-01-15T02:45:32;23.97;;;11.07;;
22131;SDS011;11232;51.748;19.390;2024-01-15T02:47:57;20.80;;;8.53;;
22131;SDS011;11232;51.748;19.390;2024-01-15T02:50:23;19.47;;;8.83;;
22131;SDS011;11232;51.748;19.390;2024-01-15T02:52:49;22.87;;;9.90;;
22131;SDS011;11232;51.748;19.390;2024-01-15T02:55:15;23.07;;;10.97;;
22131;SDS011;11232;51.748;19.390;2024-01-15T02:57:41;15.87;;;7.43;;
22131;SDS011;11232;51.748;19.390;2024-01-15T03:00:07;18.83;;;8.97;;
22131;SDS011;11232;51.748;19.390;2024-01-15T03:02:36;29.53;;;12.07;;
22131;SDS011;11232;51.748;19.390;2024-01-15T03:05:04;22.17;;;9.23;;
22131;SDS011;11232;51.748;19.390;2024-01-15T03:07:31;24.73;;;11.50;;
22131;SDS011;11232;51.748;19.390;2024-01-15T03:09:56;19.23;;;9.03;;
22131;SDS011;11232;51.748;19.390;2024-01-15T03:12:22;21.23;;;8.90;;
22131;SDS011;11232;51.748;19.390;2024-01-15T03:14:48;24.30;;;10.00;;
22131;SDS011;11232;51.748;19.390;2024-01-15T03:17:14;21.73;;;10.20;;
22131;SDS011;11232;51.748;19.390;2024-01-15T03:19:39;23.97;;;10.47;;
22131;SDS011;11232;51.748;19.390;2024-01-15T03:22:05;22.03;;;9.73;;
22131;SDS011;11232;51.748;19.390;2024-01-15T03:24:33;20.70;;;8.63;;
22131;SDS011;11232;51.748;19.390;2024-01-15T03:26:59;16.20;;;7.57;;
22131;SDS011;11232;51.748;19.390;2024-01-15T03:29:25;23.13;;;10.43;;
22131;SDS011;11232;51.748;19.390;2024-01-15T03:31:51;11.37;;;6.70;;
22131;SDS011;11232;51.748;19.390;2024-01-15T03:34:17;16.97;;;6.23;;
22131;SDS011;11232;51.748;19.390;2024-01-15T03:36:43;24.63;;;10.77;;
22131;SDS011;11232;51.748;19.390;2024-01-15T03:39:09;23.30;;;11.03;;
22131;SDS011;11232;51.748;19.390;2024-01-15T03:41:35;25.97;;;11.20;;
22131;SDS011;11232;51.748;19.390;2024-01-15T03:44:01;19.40;;;9.10;;
22131;SDS011;11232;51.748;19.390;2024-01-15T03:46:27;15.87;;;7.63;;
22131;SDS011;11232;51.748;19.390;2024-01-15T03:48:53;24.57;;;10.10;;
22131;SDS011;11232;51.748;19.390;2024-01-15T03:51:19;24.63;;;10.77;;
22131;SDS011;11232;51.748;19.390;2024-01-15T03:53:45;22.60;;;10.50;;
22131;SDS011;11232;51.748;19.390;2024-01-15T03:56:11;20.97;;;7.93;;
22131;SDS011;11232;51.748;19.390;2024-01-15T03:58:38;25.47;;;9.67;;
22131;SDS011;11232;51.748;19.390;2024-01-15T04:01:03;22.33;;;10.53;;
22131;SDS011;11232;51.748;19.390;2024-01-15T04:03:34;20.10;;;8.60;;
22131;SDS011;11232;51.748;19.390;2024-01-15T04:06:00;9.90;;;5.90;;
22131;SDS011;11232;51.748;19.390;2024-01-15T04:08:26;18.10;;;8.17;;
22131;SDS011;11232;51.748;19.390;2024-01-15T04:10:52;18.83;;;9.87;;
22131;SDS011;11232;51.748;19.390;2024-01-15T04:13:18;27.13;;;10.43;;
22131;SDS011;11232;51.748;19.390;2024-01-15T04:15:43;20.93;;;8.43;;
22131;SDS011;11232;51.748;19.390;2024-01-15T04:18:09;23.13;;;9.90;;
22131;SDS011;11232;51.748;19.390;2024-01-15T04:20:34;20.30;;;9.83;;
22131;SDS011;11232;51.748;19.390;2024-01-15T04:23:00;15.73;;;7.73;;
22131;SDS011;11232;51.748;19.390;2024-01-15T04:25:26;19.67;;;8.97;;
22131;SDS011;11232;51.748;19.390;2024-01-15T04:27:51;25.77;;;10.53;;
22131;SDS011;11232;51.748;19.390;2024-01-15T04:30:17;21.90;;;10.73;;
22131;SDS011;11232;51.748;19.390;2024-01-15T04:32:43;21.90;;;10.00;;
22131;SDS011;11232;51.748;19.390;2024-01-15T04:35:09;24.70;;;11.70;;
22131;SDS011;11232;51.748;19.390;2024-01-15T04:37:34;23.93;;;11.53;;
22131;SDS011;11232;51.748;19.390;2024-01-15T04:40:00;23.67;;;11.87;;
22131;SDS011;11232;51.748;19.390;2024-01-15T04:42:25;25.13;;;11.67;;
22131;SDS011;11232;51.748;19.390;2024-01-15T04:44:51;26.10;;;11.50;;
22131;SDS011;11232;51.748;19.390;2024-01-15T04:47:17;19.27;;;8.00;;
22131;SDS011;11232;51.748;19.390;2024-01-15T04:49:43;19.93;;;9.37;;
22131;SDS011;11232;51.748;19.390;2024-01-15T04:52:09;24.10;;;9.93;;
22131;SDS011;11232;51.748;19.390;2024-01-15T04:54:35;23.60;;;11.37;;
22131;SDS011;11232;51.748;19.390;2024-01-15T04:57:01;16.70;;;8.13;;
22131;SDS011;11232;51.748;19.390;2024-01-15T04:59:28;22.23;;;10.17;;
22131;SDS011;11232;51.748;19.390;2024-01-15T05:01:54;21.57;;;9.97;;
22131;SDS011;11232;51.748;19.390;2024-01-15T05:04:20;23.47;;;10.83;;
22131;SDS011;11232;51.748;19.390;2024-01-15T05:06:47;17.70;;;7.40;;
22131;SDS011;11232;51.748;19.390;2024-01-15T05:09:12;24.03;;;10.27;;
22131;SDS011;11232;51.748;19.390;2024-01-15T05:11:39;19.07;;;9.10;;
22131;SDS011;11232;51.748;19.390;2024-01-15T05:14:05;18.07;;;9.73;;
22131;SDS011;11232;51.748;19.390;2024-01-15T05:16:31;24.80;;;11.40;;
22131;SDS011;11232;51.748;19.390;2024-01-15T05:18:57;19.20;;;10.03;;
22131;SDS011;11232;51.748;19.390;2024-01-15T05:21:23;23.37;;;10.17;;
22131;SDS011;11232;51.748;19.390;2024-01-15T05:23:49;17.93;;;9.37;;
22131;SDS011;11232;51.748;19.390;2024-01-15T05:26:15;22.80;;;10.10;;
22131;SDS011;11232;51.748;19.390;2024-01-15T05:28:41;17.57;;;8.87;;
22131;SDS011;11232;51.748;19.390;2024-01-15T05:31:08;13.77;;;7.27;;
22131;SDS011;11232;51.748;19.390;2024-01-15T05:33:34;11.43;;;5.40;;
22131;SDS011;11232;51.748;19.390;2024-01-15T05:36:00;17.33;;;7.90;;
22131;SDS011;11232;51.748;19.390;2024-01-15T05:38:27;21.33;;;9.93;;
22131;SDS011;11232;51.748;19.390;2024-01-15T05:40:53;18.80;;;8.53;;
22131;SDS011;11232;51.748;19.390;2024-01-15T05:43:19;22.40;;;9.77;;
22131;SDS011;11232;51.748;19.390;2024-01-15T05:45:45;15.00;;;7.47;;
22131;SDS011;11232;51.748;19.390;2024-01-15T05:48:11;16.37;;;8.80;;
22131;SDS011;11232;51.748;19.390;2024-01-15T05:50:37;21.00;;;9.80;;
22131;SDS011;11232;51.748;19.390;2024-01-15T05:53:03;12.50;;;7.13;;
22131;SDS011;11232;51.748;19.390;2024-01-15T05:55:29;20.20;;;10.10;;
22131;SDS011;11232;51.748;19.390;2024-01-15T05:57:55;17.97;;;8.43;;
22131;SDS011;11232;51.748;19.390;2024-01-15T06:00:21;23.50;;;10.07;;
22131;SDS011;11232;51.748;19.390;2024-01-15T06:02:48;13.80;;;6.20;;
22131;SDS011;11232;51.748;19.390;2024-01-15T06:05:13;17.63;;;8.53;;
22131;SDS011;11232;51.748;19.390;2024-01-15T06:07:40;18.83;;;9.77;;
22131;SDS011;11232;51.748;19.390;2024-01-15T06:10:06;15.53;;;8.40;;
22131;SDS011;11232;51.748;19.390;2024-01-15T06:12:32;23.17;;;9.83;;
22131;SDS011;11232;51.748;19.390;2024-01-15T06:14:58;24.17;;;11.03;;
22131;SDS011;11232;51.748;19.390;2024-01-15T06:17:24;20.30;;;9.80;;
22131;SDS011;11232;51.748;19.390;2024-01-15T06:19:49;18.23;;;7.77;;
22131;SDS011;11232;51.748;19.390;2024-01-15T06:22:15;18.63;;;8.07;;
22131;SDS011;11232;51.748;19.390;2024-01-15T06:24:41;13.90;;;6.73;;
22131;SDS011;11232;51.748;19.390;2024-01-15T06:27:06;28.10;;;11.97;;
22131;SDS011;11232;51.748;19.390;2024-01-15T06:29:32;23.57;;;9.73;;
22131;SDS011;11232;51.748;19.390;2024-01-15T06:31:57;22.40;;;11.07;;
22131;SDS011;11232;51.748;19.390;2024-01-15T06:34:23;19.23;;;9.03;;
22131;SDS011;11232;51.748;19.390;2024-01-15T06:36:48;24.97;;;11.03;;
22131;SDS011;11232;51.748;19.390;2024-01-15T06:39:14;21.23;;;9.77;;
22131;SDS011;11232;51.748;19.390;2024-01-15T06:41:40;20.03;;;9.67;;
22131;SDS011;11232;51.748;19.390;2024-01-15T06:44:09;27.77;;;12.60;;
22131;SDS011;11232;51.748;19.390;2024-01-15T06:46:44;15.43;;;7.97;;
22131;SDS011;11232;51.748;19.390;2024-01-15T06:49:10;16.43;;;6.87;;
22131;SDS011;11232;51.748;19.390;2024-01-15T06:51:36;27.67;;;11.50;;
22131;SDS011;11232;51.748;19.390;2024-01-15T06:54:02;26.87;;;11.77;;
22131;SDS011;11232;51.748;19.390;2024-01-15T06:56:28;22.10;;;10.67;;
22131;SDS011;11232;51.748;19.390;2024-01-15T06:58:54;30.53;;;13.23;;
22131;SDS011;11232;51.748;19.390;2024-01-15T07:01:19;27.40;;;11.47;;
22131;SDS011;11232;51.748;19.390;2024-01-15T07:03:45;31.07;;;12.63;;
22131;SDS011;11232;51.748;19.390;2024-01-15T07:06:11;10.60;;;5.83;;
22131;SDS011;11232;51.748;19.390;2024-01-15T07:08:37;26.03;;;12.00;;
22131;SDS011;11232;51.748;19.390;2024-01-15T07:11:04;20.47;;;9.57;;
22131;SDS011;11232;51.748;19.390;2024-01-15T07:13:30;26.73;;;13.40;;
22131;SDS011;11232;51.748;19.390;2024-01-15T07:15:56;22.83;;;9.53;;
22131;SDS011;11232;51.748;19.390;2024-01-15T07:18:22;18.33;;;9.57;;
22131;SDS011;11232;51.748;19.390;2024-01-15T07:20:48;24.93;;;10.67;;
22131;SDS011;11232;51.748;19.390;2024-01-15T07:23:14;22.43;;;10.53;;
22131;SDS011;11232;51.748;19.390;2024-01-15T07:25:40;19.63;;;9.03;;
22131;SDS011;11232;51.748;19.390;2024-01-15T07:28:06;24.17;;;8.93;;
22131;SDS011;11232;51.748;19.390;2024-01-15T07:30:32;21.17;;;10.13;;
22131;SDS011;11232;51.748;19.390;2024-01-15T07:32:58;16.80;;;7.53;;
22131;SDS011;11232;51.748;19.390;2024-01-15T07:35:23;18.37;;;8.17;;
22131;SDS011;11232;51.748;19.390;2024-01-15T07:37:49;18.70;;;7.97;;
22131;SDS011;11232;51.748;19.390;2024-01-15T07:40:18;15.80;;;7.90;;
22131;SDS011;11232;51.748;19.390;2024-01-15T07:42:43;14.53;;;7.53;;
22131;SDS011;11232;51.748;19.390;2024-01-15T07:45:09;17.70;;;7.63;;
22131;SDS011;11232;51.748;19.390;2024-01-15T07:47:35;20.27;;;9.00;;
22131;SDS011;11232;51.748;19.390;2024-01-15T07:50:01;17.50;;;8.70;;
22131;SDS011;11232;51.748;19.390;2024-01-15T07:52:27;17.30;;;8.23;;
22131;SDS011;11232;51.748;19.390;2024-01-15T07:54:53;18.47;;;7.53;;
22131;SDS011;11232;51.748;19.390;2024-01-15T07:57:18;14.33;;;7.77;;
22131;SDS011;11232;51.748;19.390;2024-01-15T07:59:44;19.03;;;9.53;;
22131;SDS011;11232;51.748;19.390;2024-01-15T08:02:09;18.87;;;8.40;;
22131;SDS011;11232;51.748;19.390;2024-01-15T08:04:36;16.00;;;7.83;;
22131;SDS011;11232;51.748;19.390;2024-01-15T08:07:03;16.70;;;7.87;;
22131;SDS011;11232;51.748;19.390;2024-01-15T08:09:29;16.40;;;7.17;;
22131;SDS011;11232;51.748;19.390;2024-01-15T08:11:55;13.37;;;6.33;;
22131;SDS011;11232;51.748;19.390;2024-01-15T08:14:20;19.67;;;9.37;;
22131;SDS011;11232;51.748;19.390;2024-01-15T08:16:46;14.77;;;6.63;;
22131;SDS011;11232;51.748;19.390;2024-01-15T08:19:11;14.10;;;5.67;;
22131;SDS011;11232;51.748;19.390;2024-01-15T08:21:37;14.50;;;6.77;;
22131;SDS011;11232;51.748;19.390;2024-01-15T08:24:03;15.17;;;7.10;;
22131;SDS011;11232;51.748;19.390;2024-01-15T08:26:28;14.33;;;6.37;;
22131;SDS011;11232;51.748;19.390;2024-01-15T08:28:54;12.83;;;6.37;;
22131;SDS011;11232;51.748;19.390;2024-01-15T08:31:20;12.30;;;6.43;;
22131;SDS011;11232;51.748;19.390;2024-01-15T08:33:46;14.40;;;7.03;;
22131;SDS011;11232;51.748;19.390;2024-01-15T08:36:11;13.57;;;6.27;;
22131;SDS011;11232;51.748;19.390;2024-01-15T08:38:37;13.87;;;6.10;;
22131;SDS011;11232;51.748;19.390;2024-01-15T08:41:03;14.43;;;5.47;;
22131;SDS011;11232;51.748;19.390;2024-01-15T08:43:29;12.33;;;6.07;;
22131;SDS011;11232;51.748;19.390;2024-01-15T08:45:56;13.07;;;6.57;;
22131;SDS011;11232;51.748;19.390;2024-01-15T08:48:22;15.33;;;7.70;;
22131;SDS011;11232;51.748;19.390;2024-01-15T08:50:48;16.73;;;8.13;;
22131;SDS011;11232;51.748;19.390;2024-01-15T08:53:14;16.57;;;9.00;;
22131;SDS011;11232;51.748;19.390;2024-01-15T08:55:39;19.47;;;8.47;;
22131;SDS011;11232;51.748;19.390;2024-01-15T08:58:07;16.90;;;8.83;;
22131;SDS011;11232;51.748;19.390;2024-01-15T09:00:33;16.77;;;7.70;;
22131;SDS011;11232;51.748;19.390;2024-01-15T09:02:59;19.47;;;8.87;;
22131;SDS011;11232;51.748;19.390;2024-01-15T09:05:25;18.87;;;8.00;;
22131;SDS011;11232;51.748;19.390;2024-01-15T09:07:51;17.93;;;9.07;;
22131;SDS011;11232;51.748;19.390;2024-01-15T09:10:17;14.37;;;7.63;;
22131;SDS011;11232;51.748;19.390;2024-01-15T09:12:43;15.03;;;7.37;;
22131;SDS011;11232;51.748;19.390;2024-01-15T09:15:09;16.30;;;7.30;;
22131;SDS011;11232;51.748;19.390;2024-01-15T09:17:35;17.83;;;8.03;;
22131;SDS011;11232;51.748;19.390;2024-01-15T09:20:01;15.93;;;7.90;;
22131;SDS011;11232;51.748;19.390;2024-01-15T09:22:29;15.73;;;7.50;;
22131;SDS011;11232;51.748;19.390;2024-01-15T09:24:55;10.20;;;5.17;;
22131;SDS011;11232;51.748;19.390;2024-01-15T09:27:21;14.50;;;6.67;;
22131;SDS011;11232;51.748;19.390;2024-01-15T09:29:47;16.43;;;8.17;;
22131;SDS011;11232;51.748;19.390;2024-01-15T09:32:13;17.43;;;8.03;;
22131;SDS011;11232;51.748;19.390;2024-01-15T09:34:41;15.40;;;7.50;;
22131;SDS011;11232;51.748;19.390;2024-01-15T09:37:07;18.37;;;8.53;;
22131;SDS011;11232;51.748;19.390;2024-01-15T09:39:32;18.70;;;7.80;;
22131;SDS011;11232;51.748;19.390;2024-01-15T09:41:58;18.63;;;8.50;;
22131;SDS011;11232;51.748;19.390;2024-01-15T09:44:25;19.43;;;8.67;;
22131;SDS011;11232;51.748;19.390;2024-01-15T09:46:51;17.03;;;7.23;;
22131;SDS011;11232;51.748;19.390;2024-01-15T09:49:18;16.00;;;7.30;;
22131;SDS011;11232;51.748;19.390;2024-01-15T09:51:44;15.53;;;7.20;;
22131;SDS011;11232;51.748;19.390;2024-01-15T09:54:10;13.67;;;6.97;;
22131;SDS011;11232;51.748;19.390;2024-01-15T09:56:38;14.10;;;6.60;;
22131;SDS011;11232;51.748;19.390;2024-01-15T09:59:04;17.40;;;7.00;;
22131;SDS011;11232;51.748;19.390;2024-01-15T10:01:31;11.77;;;5.80;;
22131;SDS011;11232;51.748;19.390;2024-01-15T10:03:57;13.20;;;6.03;;
22131;SDS011;11232;51.748;19.390;2024-01-15T10:06:24;9.80;;;4.43;;
22131;SDS011;11232;51.748;19.390;2024-01-15T10:08:52;14.50;;;5.47;;
22131;SDS011;11232;51.748;19.390;2024-01-15T10:11:19;8.87;;;4.70;;
22131;SDS011;11232;51.748;19.390;2024-01-15T10:13:46;15.47;;;5.70;;
22131;SDS011;11232;51.748;19.390;2024-01-15T10:16:12;20.23;;;7.60;;
22131;SDS011;11232;51.748;19.390;2024-01-15T10:18:38;13.90;;;6.83;;
22131;SDS011;11232;51.748;19.390;2024-01-15T10:21:07;18.80;;;6.67;;
22131;SDS011;11232;51.748;19.390;2024-01-15T10:23:33;16.97;;;7.00;;
22131;SDS011;11232;51.748;19.390;2024-01-15T10:26:01;15.37;;;6.27;;
22131;SDS011;11232;51.748;19.390;2024-01-15T10:28:27;14.80;;;6.03;;
22131;SDS011;11232;51.748;19.390;2024-01-15T10:30:56;12.93;;;6.40;;
22131;SDS011;11232;51.748;19.390;2024-01-15T10:33:22;17.10;;;5.77;;
22131;SDS011;11232;51.748;19.390;2024-01-15T10:35:51;12.03;;;5.20;;
22131;SDS011;11232;51.748;19.390;2024-01-15T10:38:19;17.40;;;6.87;;
22131;SDS011;11232;51.748;19.390;2024-01-15T10:40:47;16.47;;;6.87;;
22131;SDS011;11232;51.748;19.390;2024-01-15T10:43:13;11.67;;;5.43;;
22131;SDS011;11232;51.748;19.390;2024-01-15T10:45:39;13.87;;;4.93;;
22131;SDS011;11232;51.748;19.390;2024-01-15T10:48:05;16.63;;;6.70;;
22131;SDS011;11232;51.748;19.390;2024-01-15T10:50:31;15.90;;;6.03;;
22131;SDS011;11232;51.748;19.390;2024-01-15T10:52:57;13.10;;;6.23;;
22131;SDS011;11232;51.748;19.390;2024-01-15T10:55:23;16.20;;;6.47;;
22131;SDS011;11232;51.748;19.390;2024-01-15T10:57:50;10.37;;;5.87;;
22131;SDS011;11232;51.748;19.390;2024-01-15T11:00:16;14.30;;;6.20;;
22131;SDS011;11232;51.748;19.390;2024-01-15T11:02:42;13.47;;;5.97;;
22131;SDS011;11232;51.748;19.390;2024-01-15T11:05:09;12.43;;;5.10;;
22131;SDS011;11232;51.748;19.390;2024-01-15T11:07:35;12.97;;;5.30;;
22131;SDS011;11232;51.748;19.390;2024-01-15T11:10:05;12.03;;;5.67;;
22131;SDS011;11232;51.748;19.390;2024-01-15T11:12:32;11.33;;;5.70;;
22131;SDS011;11232;51.748;19.390;2024-01-15T11:15:02;13.23;;;6.23;;
22131;SDS011;11232;51.748;19.390;2024-01-15T11:20:18;11.50;;;6.00;;
22131;SDS011;11232;51.748;19.390;2024-01-15T11:22:48;14.63;;;6.70;;
22131;SDS011;11232;51.748;19.390;2024-01-15T11:25:14;14.07;;;6.33;;
22131;SDS011;11232;51.748;19.390;2024-01-15T11:27:44;14.03;;;5.50;;
22131;SDS011;11232;51.748;19.390;2024-01-15T11:30:12;8.50;;;5.10;;
22131;SDS011;11232;51.748;19.390;2024-01-15T11:32:39;13.30;;;6.77;;
22131;SDS011;11232;51.748;19.390;2024-01-15T11:35:08;13.77;;;5.97;;
22131;SDS011;11232;51.748;19.390;2024-01-15T11:40:35;14.63;;;6.50;;
22131;SDS011;11232;51.748;19.390;2024-01-15T11:43:03;14.00;;;5.97;;
22131;SDS011;11232;51.748;19.390;2024-01-15T11:45:29;10.83;;;5.23;;
22131;SDS011;11232;51.748;19.390;2024-01-15T11:50:28;10.93;;;5.53;;
22131;SDS011;11232;51.748;19.390;2024-01-15T11:53:02;16.07;;;6.40;;
22131;SDS011;11232;51.748;19.390;2024-01-15T11:55:35;9.93;;;4.63;;
22131;SDS011;11232;51.748;19.390;2024-01-15T11:58:01;14.33;;;5.63;;
22131;SDS011;11232;51.748;19.390;2024-01-15T12:00:28;10.47;;;5.23;;
22131;SDS011;11232;51.748;19.390;2024-01-15T12:02:54;9.73;;;5.17;;
22131;SDS011;11232;51.748;19.390;2024-01-15T12:05:21;14.60;;;5.47;;
22131;SDS011;11232;51.748;19.390;2024-01-15T12:07:48;8.80;;;4.97;;
22131;SDS011;11232;51.748;19.390;2024-01-15T12:10:15;15.30;;;6.10;;
22131;SDS011;11232;51.748;19.390;2024-01-15T12:15:18;8.17;;;4.23;;
22131;SDS011;11232;51.748;19.390;2024-01-15T12:17:45;13.20;;;4.87;;
22131;SDS011;11232;51.748;19.390;2024-01-15T12:20:12;11.27;;;4.50;;
22131;SDS011;11232;51.748;19.390;2024-01-15T12:22:38;14.30;;;5.40;;
22131;SDS011;11232;51.748;19.390;2024-01-15T12:25:04;13.53;;;4.63;;
22131;SDS011;11232;51.748;19.390;2024-01-15T12:27:31;11.50;;;4.40;;
22131;SDS011;11232;51.748;19.390;2024-01-15T12:29:57;12.70;;;4.73;;
22131;SDS011;11232;51.748;19.390;2024-01-15T12:32:24;17.50;;;5.10;;
22131;SDS011;11232;51.748;19.390;2024-01-15T12:34:50;9.33;;;4.33;;
22131;SDS011;11232;51.748;19.390;2024-01-15T12:37:19;12.73;;;5.57;;
22131;SDS011;11232;51.748;19.390;2024-01-15T12:39:46;13.07;;;5.60;;
22131;SDS011;11232;51.748;19.390;2024-01-15T12:42:13;12.97;;;5.37;;
22131;SDS011;11232;51.748;19.390;2024-01-15T12:44:41;8.03;;;4.30;;
22131;SDS011;11232;51.748;19.390;2024-01-15T12:47:07;14.50;;;4.80;;
22131;SDS011;11232;51.748;19.390;2024-01-15T12:49:35;13.07;;;5.77;;
22131;SDS011;11232;51.748;19.390;2024-01-15T12:52:01;9.80;;;4.60;;
22131;SDS011;11232;51.748;19.390;2024-01-15T12:54:27;15.80;;;6.07;;
22131;SDS011;11232;51.748;19.390;2024-01-15T12:56:53;12.77;;;5.43;;
22131;SDS011;11232;51.748;19.390;2024-01-15T12:59:19;17.03;;;4.73;;
22131;SDS011;11232;51.748;19.390;2024-01-15T13:01:45;8.60;;;3.93;;
22131;SDS011;11232;51.748;19.390;2024-01-15T13:04:20;11.70;;;4.87;;
22131;SDS011;11232;51.748;19.390;2024-01-15T13:06:46;14.70;;;6.00;;
22131;SDS011;11232;51.748;19.390;2024-01-15T13:09:12;12.07;;;4.43;;
22131;SDS011;11232;51.748;19.390;2024-01-15T13:11:39;15.43;;;6.20;;
22131;SDS011;11232;51.748;19.390;2024-01-15T13:14:05;14.37;;;5.23;;
22131;SDS011;11232;51.748;19.390;2024-01-15T13:16:31;12.43;;;4.63;;
22131;SDS011;11232;51.748;19.390;2024-01-15T13:18:57;15.43;;;5.50;;
22131;SDS011;11232;51.748;19.390;2024-01-15T13:21:24;12.00;;;4.47;;
22131;SDS011;11232;51.748;19.390;2024-01-15T13:23:50;16.07;;;5.80;;
22131;SDS011;11232;51.748;19.390;2024-01-15T13:26:16;16.27;;;5.60;;
22131;SDS011;11232;51.748;19.390;2024-01-15T13:28:44;11.77;;;5.47;;
22131;SDS011;11232;51.748;19.390;2024-01-15T13:31:10;23.73;;;5.70;;
22131;SDS011;11232;51.748;19.390;2024-01-15T13:33:36;8.00;;;4.07;;
22131;SDS011;11232;51.748;19.390;2024-01-15T13:36:02;12.03;;;5.07;;
22131;SDS011;11232;51.748;19.390;2024-01-15T13:38:28;11.33;;;5.23;;
22131;SDS011;11232;51.748;19.390;2024-01-15T13:40:59;12.60;;;4.63;;
22131;SDS011;11232;51.748;19.390;2024-01-15T13:43:25;15.27;;;6.93;;
22131;SDS011;11232;51.748;19.390;2024-01-15T13:45:52;15.27;;;5.93;;
22131;SDS011;11232;51.748;19.390;2024-01-15T13:48:19;29.37;;;10.07;;
22131;SDS011;11232;51.748;19.390;2024-01-15T13:50:44;18.80;;;7.33;;
22131;SDS011;11232;51.748;19.390;2024-01-15T13:53:10;17.23;;;7.13;;
22131;SDS011;11232;51.748;19.390;2024-01-15T13:55:36;16.30;;;6.67;;
22131;SDS011;11232;51.748;19.390;2024-01-15T13:58:02;16.97;;;6.97;;
22131;SDS011;11232;51.748;19.390;2024-01-15T14:00:30;13.00;;;4.53;;
22131;SDS011;11232;51.748;19.390;2024-01-15T14:02:56;9.83;;;3.73;;
22131;SDS011;11232;51.748;19.390;2024-01-15T14:05:23;10.50;;;4.43;;
22131;SDS011;11232;51.748;19.390;2024-01-15T14:07:48;11.00;;;4.03;;
22131;SDS011;11232;51.748;19.390;2024-01-15T14:10:14;14.73;;;4.97;;
22131;SDS011;11232;51.748;19.390;2024-01-15T14:12:41;9.53;;;4.07;;
22131;SDS011;11232;51.748;19.390;2024-01-15T14:15:07;16.27;;;5.10;;
22131;SDS011;11232;51.748;19.390;2024-01-15T14:17:34;10.60;;;3.93;;
22131;SDS011;11232;51.748;19.390;2024-01-15T14:20:00;11.70;;;4.93;;
22131;SDS011;11232;51.748;19.390;2024-01-15T14:22:26;11.53;;;4.30;;
22131;SDS011;11232;51.748;19.390;2024-01-15T14:24:52;11.70;;;4.57;;